createdAt,value
2017-08-15T00:00:58.788Z,63.80
2017-08-15T00:03:25.839Z,63.90
2017-08-15T00:05:52.888Z,64.00
2017-08-15T00:08:19.943Z,63.90
2017-08-15T00:10:46.243Z,63.80
2017-08-15T00:13:12.549Z,64.00
2017-08-15T00:15:38.854Z,64.00
2017-08-15T00:18:05.117Z,64.00
2017-08-15T00:20:31.407Z,63.80
2017-08-15T00:22:59.359Z,63.90
2017-08-15T00:25:25.639Z,63.80
2017-08-15T00:27:51.971Z,63.80
2017-08-15T00:30:19.051Z,63.80
2017-08-15T00:32:45.356Z,63.80
2017-08-15T00:35:12.428Z,64.00
2017-08-15T00:37:39.491Z,63.80
2017-08-15T00:40:06.536Z,63.70
2017-08-15T00:42:33.696Z,63.90
2017-08-15T00:45:01.875Z,63.70
2017-08-15T00:47:28.888Z,63.90
2017-08-15T00:49:56.531Z,64.00
2017-08-15T00:52:22.878Z,63.70
2017-08-15T00:54:49.168Z,63.70
2017-08-15T00:57:16.211Z,64.00
2017-08-15T00:59:43.275Z,64.00
2017-08-15T01:02:10.327Z,64.10
2017-08-15T01:04:36.647Z,63.90
2017-08-15T01:07:04.267Z,63.70
2017-08-15T01:09:30.555Z,63.70
2017-08-15T01:11:56.867Z,63.90
2017-08-15T01:14:23.283Z,64.10
2017-08-15T01:16:49.567Z,64.10
2017-08-15T01:19:16.614Z,64.30
2017-08-15T01:21:43.692Z,64.20
2017-08-15T01:24:10.046Z,64.20
2017-08-15T01:26:36.347Z,64.10
2017-08-15T01:29:03.238Z,64.20
2017-08-15T01:31:29.517Z,64.50
2017-08-15T01:33:55.805Z,64.30
2017-08-15T01:36:22.128Z,64.40
2017-08-15T01:38:48.415Z,64.40
2017-08-15T01:41:14.675Z,64.50
2017-08-15T01:43:41.807Z,64.70
2017-08-15T01:46:08.856Z,64.40
2017-08-15T01:48:35.155Z,64.40
2017-08-15T01:51:03.571Z,64.40
2017-08-15T01:53:29.847Z,64.50
2017-08-15T01:55:56.846Z,64.60
2017-08-15T01:58:23.152Z,64.50
2017-08-15T02:00:49.467Z,64.80
2017-08-15T02:03:16.480Z,64.60
2017-08-15T02:05:42.795Z,64.50
2017-08-15T02:08:09.075Z,64.70
2017-08-15T02:10:35.359Z,64.80
2017-08-15T02:13:01.687Z,64.80
2017-08-15T02:15:27.957Z,64.70
2017-08-15T02:17:54.230Z,64.80
2017-08-15T02:20:22.145Z,64.80
2017-08-15T02:22:48.463Z,64.80
2017-08-15T02:25:14.729Z,65.00
2017-08-15T02:27:40.995Z,64.80
2017-08-15T02:30:07.239Z,65.00
2017-08-15T02:32:34.258Z,64.90
2017-08-15T02:35:03.748Z,64.90
2017-08-15T02:37:30.028Z,65.10
2017-08-15T02:39:56.280Z,65.20
2017-08-15T02:42:22.569Z,65.00
2017-08-15T02:44:48.806Z,64.90
2017-08-15T02:47:15.121Z,65.10
2017-08-15T02:49:41.411Z,65.20
2017-08-15T02:52:10.147Z,65.00
2017-08-15T02:54:36.395Z,65.00
2017-08-15T02:57:06.194Z,65.20
2017-08-15T02:59:33.163Z,65.30
2017-08-15T03:01:59.409Z,65.20
2017-08-15T03:04:26.545Z,65.10
2017-08-15T03:06:52.801Z,65.20
2017-08-15T03:09:19.054Z,65.30
2017-08-15T03:11:46.159Z,65.90
2017-08-15T03:14:13.153Z,67.40
2017-08-15T03:16:39.407Z,67.40
2017-08-15T03:19:05.794Z,67.70
2017-08-15T03:21:32.035Z,67.70
2017-08-15T03:24:05.307Z,67.60
2017-08-15T03:26:31.935Z,67.60
2017-08-15T03:28:58.914Z,67.50
2017-08-15T03:31:25.188Z,67.50
2017-08-15T03:33:51.442Z,67.50
2017-08-15T03:36:18.443Z,67.40
2017-08-15T03:38:45.890Z,67.40
2017-08-15T03:41:12.135Z,67.40
2017-08-15T03:43:38.392Z,67.60
2017-08-15T03:46:04.657Z,67.40
2017-08-15T03:48:30.919Z,67.20
2017-08-15T03:50:57.919Z,67.50
2017-08-15T03:53:26.390Z,67.50
2017-08-15T03:55:52.673Z,67.40
2017-08-15T03:58:19.678Z,68.30
2017-08-15T04:00:46.306Z,67.60
2017-08-15T04:03:12.571Z,67.30
2017-08-15T04:05:45.672Z,67.50
2017-08-15T04:08:11.955Z,67.50
2017-08-15T04:10:38.203Z,67.50
2017-08-15T04:13:04.470Z,67.50
2017-08-15T04:15:30.760Z,67.60
2017-08-15T04:17:57.779Z,67.70
2017-08-15T04:20:24.666Z,67.50
2017-08-15T04:22:51.651Z,67.60
2017-08-15T04:25:24.943Z,67.60
2017-08-15T04:27:51.224Z,67.60
2017-08-15T04:30:18.227Z,67.70
2017-08-15T04:32:44.522Z,67.70
2017-08-15T04:35:11.511Z,68.50
2017-08-15T04:37:37.799Z,67.80
2017-08-15T04:40:04.435Z,67.90
2017-08-15T04:42:30.694Z,68.10
2017-08-15T04:44:56.975Z,68.10
2017-08-15T04:47:23.269Z,68.00
2017-08-15T04:49:49.562Z,67.90
2017-08-15T04:52:15.826Z,68.30
2017-08-15T04:54:53.851Z,68.50
2017-08-15T04:57:20.974Z,68.40
2017-08-15T04:59:47.215Z,68.50
2017-08-15T05:02:15.015Z,69.00
2017-08-15T05:04:41.278Z,68.40
2017-08-15T05:07:07.528Z,68.60
2017-08-15T05:09:33.805Z,69.40
2017-08-15T05:12:00.071Z,69.30
2017-08-15T05:14:26.381Z,69.20
2017-08-15T05:16:52.674Z,69.10
2017-08-15T05:19:18.932Z,69.10
2017-08-15T05:21:45.196Z,69.60
2017-08-15T05:24:11.490Z,69.70
2017-08-15T05:26:37.723Z,69.20
2017-08-15T05:29:03.971Z,69.60
2017-08-15T05:31:30.271Z,69.50
2017-08-15T05:33:56.534Z,69.40
2017-08-15T05:36:22.778Z,69.30
2017-08-15T05:38:49.053Z,69.20
2017-08-15T05:41:15.286Z,69.30
2017-08-15T05:43:41.543Z,69.40
2017-08-15T05:46:08.323Z,69.80
2017-08-15T05:48:35.320Z,70.00
2017-08-15T05:51:09.384Z,70.80
2017-08-15T05:53:35.778Z,70.10
2017-08-15T05:56:03.143Z,70.40
2017-08-15T05:58:36.507Z,70.40
2017-08-15T06:01:02.783Z,70.50
2017-08-15T06:03:29.054Z,70.70
2017-08-15T06:05:56.879Z,70.80
2017-08-15T06:08:23.143Z,70.70
2017-08-15T06:10:50.151Z,70.90
2017-08-15T06:13:16.470Z,70.90
2017-08-15T06:15:42.742Z,70.90
2017-08-15T06:18:09.003Z,71.00
2017-08-15T06:20:35.302Z,71.00
2017-08-15T06:23:01.562Z,70.60
2017-08-15T06:25:27.834Z,70.70
2017-08-15T06:27:55.350Z,70.70
2017-08-15T06:30:22.530Z,70.60
2017-08-15T06:32:48.798Z,70.50
2017-08-15T06:35:15.082Z,70.30
2017-08-15T06:37:42.339Z,70.70
2017-08-15T06:40:08.610Z,70.60
2017-08-15T06:42:35.658Z,70.00
2017-08-15T06:45:02.662Z,69.80
2017-08-15T06:47:28.976Z,69.30
2017-08-15T06:49:56.036Z,69.40
2017-08-15T06:52:22.326Z,69.30
2017-08-15T06:54:48.575Z,69.00
2017-08-15T06:57:15.902Z,69.10
2017-08-15T06:59:42.194Z,69.10
2017-08-15T07:02:09.194Z,69.00
2017-08-15T07:04:35.499Z,68.90
2017-08-15T07:07:01.810Z,68.80
2017-08-15T07:09:28.802Z,68.60
2017-08-15T07:11:55.534Z,68.60
2017-08-15T07:14:21.799Z,68.80
2017-08-15T07:16:48.063Z,68.60
2017-08-15T07:19:15.201Z,68.70
2017-08-15T07:21:41.500Z,68.70
2017-08-15T07:24:07.773Z,68.60
2017-08-15T07:26:34.156Z,68.70
2017-08-15T07:29:00.510Z,68.70
2017-08-15T07:31:28.407Z,69.00
2017-08-15T07:33:54.770Z,69.00
2017-08-15T07:36:21.767Z,68.70
2017-08-15T07:38:48.034Z,68.70
2017-08-15T07:41:15.087Z,69.20
2017-08-15T07:43:41.359Z,69.00
2017-08-15T07:46:08.794Z,69.50
2017-08-15T07:48:35.940Z,69.30
2017-08-15T07:51:02.360Z,69.30
2017-08-15T07:53:29.447Z,70.20
2017-08-15T07:55:57.392Z,69.20
2017-08-15T07:58:25.922Z,69.20
2017-08-15T08:00:52.383Z,69.90
2017-08-15T08:03:18.802Z,70.30
2017-08-15T08:05:45.195Z,70.00
2017-08-15T08:08:11.547Z,70.20
2017-08-15T08:10:39.134Z,70.10
2017-08-15T08:13:06.044Z,70.10
2017-08-15T08:15:32.481Z,69.80
2017-08-15T08:17:58.902Z,69.50
2017-08-15T08:20:26.067Z,70.40
2017-08-15T08:22:53.357Z,70.00
2017-08-15T08:25:19.899Z,70.10
2017-08-15T08:27:47.230Z,70.20
2017-08-15T08:30:13.653Z,70.20
2017-08-15T08:32:40.074Z,69.70
2017-08-15T08:35:09.360Z,70.10
2017-08-15T08:37:35.766Z,70.80
2017-08-15T08:40:03.042Z,70.70
2017-08-15T08:42:29.450Z,70.40
2017-08-15T08:44:55.834Z,70.60
2017-08-15T08:47:22.445Z,71.20
2017-08-15T08:49:49.003Z,71.90
2017-08-15T08:52:15.439Z,71.60
2017-08-15T08:54:42.691Z,72.20
2017-08-15T08:57:09.124Z,72.00
2017-08-15T08:59:36.746Z,71.70
2017-08-15T09:02:04.275Z,71.60
2017-08-15T09:04:30.673Z,71.50
2017-08-15T09:06:57.040Z,71.90
2017-08-15T09:09:23.515Z,71.20
2017-08-15T09:11:49.929Z,71.20
2017-08-15T09:14:19.143Z,71.20
2017-08-15T09:16:45.612Z,70.20
2017-08-15T09:19:12.076Z,70.30
2017-08-15T09:21:39.272Z,70.60
2017-08-15T09:24:06.529Z,70.60
2017-08-15T09:26:32.928Z,70.30
2017-08-15T09:29:01.363Z,70.10
2017-08-15T09:31:27.769Z,70.50
2017-08-15T09:33:54.960Z,69.50
2017-08-15T09:36:22.228Z,69.70
2017-08-15T09:38:49.585Z,70.30
2017-08-15T09:41:15.997Z,70.20
2017-08-15T09:43:42.384Z,69.70
2017-08-15T09:46:09.988Z,68.60
2017-08-15T09:48:37.007Z,69.10
2017-08-15T09:51:04.183Z,69.40
2017-08-15T09:53:30.615Z,69.40
2017-08-15T09:55:57.012Z,69.50
2017-08-15T09:58:29.430Z,68.50
2017-08-15T10:00:56.598Z,68.50
2017-08-15T10:03:22.983Z,68.50
2017-08-15T10:05:50.282Z,68.70
2017-08-15T10:08:17.991Z,69.30
2017-08-15T10:10:45.080Z,69.50
2017-08-15T10:13:11.438Z,69.40
2017-08-15T10:15:37.746Z,69.20
2017-08-15T10:18:05.055Z,69.20
2017-08-15T10:20:31.334Z,69.20
2017-08-15T10:22:58.378Z,68.80
2017-08-15T10:25:25.399Z,68.40
2017-08-15T10:27:53.329Z,67.90
2017-08-15T10:30:19.616Z,67.80
2017-08-15T10:32:46.652Z,69.50
2017-08-15T10:35:13.810Z,69.30
2017-08-15T10:37:40.846Z,68.90
2017-08-15T10:40:07.962Z,68.90
2017-08-15T10:42:34.262Z,69.00
2017-08-15T10:45:00.607Z,69.40
2017-08-15T10:47:27.642Z,69.80
2017-08-15T10:49:54.854Z,69.30
2017-08-15T10:52:22.071Z,69.60
2017-08-15T10:54:48.359Z,68.70
2017-08-15T10:57:14.670Z,68.80
2017-08-15T10:59:40.972Z,69.20
2017-08-15T11:02:08.175Z,69.40
2017-08-15T11:04:35.255Z,69.20
2017-08-15T11:07:01.574Z,69.20
2017-08-15T11:09:27.998Z,69.60
2017-08-15T11:11:54.679Z,69.60
2017-08-15T11:14:21.204Z,70.30
2017-08-15T11:16:47.478Z,70.20
2017-08-15T11:19:13.861Z,69.50
2017-08-15T11:21:40.135Z,69.80
2017-08-15T11:24:07.280Z,70.20
2017-08-15T11:26:33.660Z,69.70
2017-08-15T11:29:00.663Z,70.10
2017-08-15T11:31:26.990Z,70.00
2017-08-15T11:33:53.811Z,69.80
2017-08-15T11:36:20.822Z,69.90
2017-08-15T11:38:47.079Z,69.80
2017-08-15T11:41:14.359Z,69.50
2017-08-15T11:43:40.686Z,69.40
2017-08-15T11:46:07.699Z,69.40
2017-08-15T11:48:34.009Z,69.20
2017-08-15T11:51:01.148Z,69.50
2017-08-15T11:53:27.463Z,69.20
2017-08-15T11:55:55.383Z,69.40
2017-08-15T11:58:21.678Z,69.30
2017-08-15T12:00:48.686Z,69.50
2017-08-15T12:03:15.426Z,69.40
2017-08-15T12:05:41.730Z,69.10
2017-08-15T12:08:08.038Z,68.90
2017-08-15T12:10:34.319Z,69.00
2017-08-15T12:13:01.336Z,69.10
2017-08-15T12:15:28.371Z,69.00
2017-08-15T12:17:54.675Z,69.00
2017-08-15T12:20:20.963Z,69.30
2017-08-15T12:22:47.250Z,68.70
2017-08-15T12:25:15.286Z,68.90
2017-08-15T12:27:42.287Z,68.90
2017-08-15T12:30:08.610Z,68.70
2017-08-15T12:32:34.903Z,68.90
2017-08-15T12:35:02.121Z,68.90
2017-08-15T12:37:28.414Z,68.50
2017-08-15T12:39:55.502Z,68.90
2017-08-15T12:42:21.795Z,69.20
2017-08-15T12:44:49.034Z,69.00
2017-08-15T12:47:15.483Z,69.00
2017-08-15T12:49:41.770Z,68.90
2017-08-15T12:52:08.872Z,69.60
2017-08-15T12:54:35.186Z,69.50
2017-08-15T12:57:02.234Z,69.60
2017-08-15T12:59:28.538Z,69.50
2017-08-15T13:01:54.877Z,70.00
2017-08-15T13:04:23.670Z,69.20
2017-08-15T13:06:49.982Z,69.20
2017-08-15T13:09:16.314Z,69.50
2017-08-15T13:11:43.539Z,68.90
2017-08-15T13:14:09.818Z,68.80
2017-08-15T13:16:36.107Z,68.70
2017-08-15T13:19:02.402Z,68.70
2017-08-15T13:21:28.705Z,68.70
2017-08-15T13:24:03.158Z,69.10
2017-08-15T13:26:29.486Z,69.20
2017-08-15T13:28:55.923Z,69.00
2017-08-15T13:31:22.224Z,68.90
2017-08-15T13:33:49.466Z,69.10
2017-08-15T13:36:15.831Z,69.20
2017-08-15T13:38:43.127Z,69.00
2017-08-15T13:41:10.279Z,69.30
2017-08-15T13:43:36.579Z,69.20
2017-08-15T13:46:03.498Z,68.80
2017-08-15T13:48:29.841Z,68.70
2017-08-15T13:50:56.139Z,69.10
2017-08-15T13:53:22.523Z,68.70
2017-08-15T13:55:48.839Z,68.70
2017-08-15T13:58:15.150Z,68.80
2017-08-15T14:00:42.486Z,67.80
2017-08-15T14:03:08.817Z,67.10
2017-08-15T14:05:37.030Z,65.70
2017-08-15T14:08:05.446Z,66.00
2017-08-15T14:10:31.745Z,65.90
2017-08-15T14:13:00.147Z,66.60
2017-08-15T14:15:26.467Z,66.60
2017-08-15T14:17:52.770Z,66.70
2017-08-15T14:20:20.838Z,65.70
2017-08-15T14:22:47.195Z,65.70
2017-08-15T14:25:13.502Z,65.60
2017-08-15T14:27:40.546Z,64.80
2017-08-15T14:30:08.390Z,65.30
2017-08-15T14:32:34.684Z,65.20
2017-08-15T14:35:00.983Z,65.70
2017-08-15T14:37:27.352Z,65.30
2017-08-15T14:39:53.630Z,65.70
2017-08-15T14:42:19.947Z,65.30
2017-08-15T14:44:47.231Z,65.30
2017-08-15T14:47:14.456Z,65.60
2017-08-15T14:49:42.398Z,66.10
2017-08-15T14:52:10.963Z,66.10
2017-08-15T14:54:44.283Z,66.20
2017-08-15T14:57:13.580Z,66.20
2017-08-15T14:59:39.882Z,67.50
2017-08-15T15:02:07.131Z,66.90
2017-08-15T15:04:33.440Z,67.10
2017-08-15T15:07:01.152Z,67.10
2017-08-15T15:09:27.454Z,67.60
2017-08-15T15:11:53.891Z,67.40
2017-08-15T15:14:20.170Z,67.10
2017-08-15T15:16:47.455Z,67.20
2017-08-15T15:19:13.818Z,67.70
2017-08-15T15:21:40.110Z,68.70
2017-08-15T15:24:06.394Z,68.20
2017-08-15T15:26:33.434Z,68.80
2017-08-15T15:29:00.565Z,68.70
2017-08-15T15:31:26.966Z,69.40
2017-08-15T15:33:53.355Z,69.40
2017-08-15T15:36:19.689Z,69.30
2017-08-15T15:38:45.976Z,70.30
2017-08-15T15:43:34.900Z,69.30
2017-08-15T15:46:01.197Z,69.00
2017-08-15T15:48:27.539Z,69.50
2017-08-15T15:50:53.907Z,69.40
2017-08-15T15:53:20.174Z,69.20
2017-08-15T15:55:47.217Z,68.90
2017-08-15T15:58:14.250Z,69.40
2017-08-15T16:00:40.707Z,68.60
2017-08-15T16:03:06.936Z,68.20
2017-08-15T16:05:33.252Z,67.40
2017-08-15T16:08:00.376Z,67.80
2017-08-15T16:10:27.365Z,67.90
2017-08-15T16:12:54.489Z,67.80
2017-08-15T16:15:21.463Z,68.60
2017-08-15T16:17:47.710Z,68.60
2017-08-15T16:20:14.032Z,68.30
2017-08-15T16:22:40.278Z,67.80
2017-08-15T16:25:06.553Z,68.00
2017-08-15T16:27:32.826Z,68.40
2017-08-15T16:29:59.144Z,68.50
2017-08-15T16:32:26.123Z,68.60
2017-08-15T16:34:52.498Z,67.90
2017-08-15T16:37:18.730Z,68.00
2017-08-15T16:39:44.996Z,67.40
2017-08-15T16:44:33.647Z,67.70
2017-08-15T16:46:59.909Z,67.70
2017-08-15T16:49:26.166Z,68.00
2017-08-15T16:51:52.762Z,67.50
2017-08-15T16:54:19.026Z,67.60
2017-08-15T16:56:45.276Z,67.90
2017-08-15T16:59:11.578Z,67.60
2017-08-15T17:01:37.845Z,67.80
2017-08-15T17:04:04.835Z,68.40
2017-08-15T17:06:31.425Z,68.30
2017-08-15T17:09:09.167Z,68.20
2017-08-15T17:11:35.962Z,68.30
2017-08-15T17:14:02.226Z,68.60
2017-08-15T17:16:29.198Z,67.80
2017-08-15T17:18:55.561Z,67.80
2017-08-15T17:21:21.907Z,67.90
2017-08-15T17:23:48.142Z,68.00
2017-08-15T17:26:15.810Z,67.60
2017-08-15T17:28:42.830Z,67.50
2017-08-15T17:31:09.147Z,67.40
2017-08-15T17:33:35.500Z,67.60
2017-08-15T17:36:01.749Z,67.70
2017-08-15T17:38:28.020Z,68.20
2017-08-15T17:40:54.307Z,68.60
2017-08-15T17:43:20.830Z,69.90
2017-08-15T17:45:47.891Z,72.50
2017-08-15T17:48:14.278Z,72.50
2017-08-15T17:50:40.536Z,73.20
2017-08-15T17:53:06.766Z,75.40
2017-08-15T17:55:33.026Z,77.40
2017-08-15T17:57:59.285Z,76.20
2017-08-15T18:00:25.590Z,77.60
2017-08-15T18:02:51.823Z,78.40
2017-08-15T18:05:18.076Z,79.80
2017-08-15T18:07:44.330Z,79.90
2017-08-15T18:10:12.599Z,78.70
2017-08-15T18:12:38.851Z,78.90
2017-08-15T18:15:05.083Z,78.70
2017-08-15T18:17:33.488Z,79.30
2017-08-15T18:19:59.793Z,79.30
2017-08-15T18:22:26.074Z,80.00
2017-08-15T18:24:52.404Z,80.40
2017-08-15T18:27:19.438Z,80.20
2017-08-15T18:29:45.642Z,80.20
2017-08-15T18:32:12.627Z,80.60
2017-08-15T18:34:38.843Z,80.50
2017-08-15T18:37:05.068Z,80.60
2017-08-15T18:39:32.107Z,81.10
2017-08-15T18:41:58.374Z,81.30
2017-08-15T18:44:24.781Z,81.60
2017-08-15T18:46:51.109Z,80.90
2017-08-15T18:49:17.363Z,81.50
2017-08-15T18:51:43.620Z,82.20
2017-08-15T18:54:09.875Z,82.50
2017-08-15T18:56:36.099Z,82.50
2017-08-15T18:59:02.307Z,83.10
2017-08-15T19:01:28.567Z,83.50
2017-08-15T19:03:54.798Z,83.70
2017-08-15T19:06:21.026Z,83.70
2017-08-15T19:08:47.286Z,83.70
2017-08-15T19:11:14.099Z,83.30
2017-08-15T19:13:40.313Z,84.10
2017-08-15T19:16:07.298Z,84.20
2017-08-15T19:18:33.510Z,84.20
2017-08-15T19:20:59.742Z,84.20
2017-08-15T19:23:27.594Z,84.70
2017-08-15T19:25:53.823Z,84.70
2017-08-15T19:28:20.054Z,84.80
2017-08-15T19:30:46.305Z,85.40
2017-08-15T19:33:12.550Z,85.90
2017-08-15T19:35:39.507Z,85.20
2017-08-15T19:38:05.766Z,85.10
2017-08-15T19:40:32.113Z,85.10
2017-08-15T19:42:58.330Z,85.40
2017-08-15T19:45:25.146Z,85.00
2017-08-15T19:47:51.491Z,85.00
2017-08-15T19:50:17.978Z,85.10
2017-08-15T19:52:44.218Z,84.90
2017-08-15T19:55:10.450Z,85.00
2017-08-15T19:57:36.666Z,85.40
2017-08-15T20:00:02.922Z,85.50
2017-08-15T20:02:29.154Z,85.60
2017-08-15T20:04:55.384Z,85.50
2017-08-15T20:07:21.930Z,85.00
2017-08-15T20:09:48.166Z,84.30
2017-08-15T20:12:16.081Z,85.00
2017-08-15T20:14:43.234Z,84.80
2017-08-15T20:17:10.246Z,84.80
2017-08-15T20:19:36.490Z,84.80
2017-08-15T20:22:02.758Z,85.00
2017-08-15T20:24:29.775Z,83.80
2017-08-15T20:26:56.007Z,83.80
2017-08-15T20:29:29.545Z,83.20
2017-08-15T20:31:56.547Z,82.70
2017-08-15T20:34:22.770Z,82.70
2017-08-15T20:36:49.039Z,83.40
2017-08-15T20:39:15.278Z,83.50
2017-08-15T20:41:41.513Z,83.70
2017-08-15T20:44:07.746Z,83.60
2017-08-15T20:46:33.965Z,83.70
2017-08-15T20:49:00.180Z,83.60
2017-08-15T20:51:26.717Z,83.20
2017-08-15T20:53:52.975Z,82.30
2017-08-15T20:56:19.210Z,83.70
2017-08-15T20:58:45.467Z,84.80
2017-08-15T21:01:11.697Z,84.70
2017-08-15T21:03:37.946Z,85.00
2017-08-15T21:06:04.928Z,85.20
2017-08-15T21:08:31.156Z,85.10
2017-08-15T21:10:57.374Z,85.00
2017-08-15T21:13:27.594Z,86.20
2017-08-15T21:15:53.801Z,85.40
2017-08-15T21:18:20.027Z,85.70
2017-08-15T21:20:46.271Z,85.50
2017-08-15T21:23:12.499Z,85.30
2017-08-15T21:25:38.730Z,85.30
2017-08-15T21:28:05.015Z,85.40
2017-08-15T21:30:31.990Z,85.80
2017-08-15T21:32:58.245Z,86.40
2017-08-15T21:35:24.528Z,86.50
2017-08-15T21:37:50.750Z,86.10
2017-08-15T21:40:17.732Z,85.80
2017-08-15T21:42:44.794Z,85.30
2017-08-15T21:45:11.010Z,85.20
2017-08-15T21:47:37.222Z,85.40
2017-08-15T21:50:03.472Z,85.50
2017-08-15T21:52:30.436Z,86.50
2017-08-15T21:54:57.394Z,85.70
2017-08-15T21:57:24.221Z,85.70
2017-08-15T21:59:51.183Z,86.30
2017-08-15T22:02:19.992Z,85.30
2017-08-15T22:04:46.254Z,85.30
2017-08-15T22:07:12.471Z,85.30
2017-08-15T22:09:38.687Z,85.30
2017-08-15T22:12:04.935Z,85.30
2017-08-15T22:14:31.775Z,85.60
2017-08-15T22:16:57.995Z,85.30
2017-08-15T22:19:25.556Z,84.50
2017-08-15T22:21:52.519Z,84.50
2017-08-15T22:24:18.739Z,84.50
2017-08-15T22:26:45.743Z,84.40
2017-08-15T22:29:11.972Z,84.30
2017-08-15T22:31:38.223Z,84.20
2017-08-15T22:34:04.474Z,84.40
2017-08-15T22:36:30.694Z,84.70
2017-08-15T22:38:56.922Z,84.50
2017-08-15T22:41:23.506Z,84.70
2017-08-15T22:43:50.494Z,84.80
2017-08-15T22:46:16.753Z,84.70
2017-08-15T22:48:42.984Z,84.80
2017-08-15T22:51:09.275Z,84.40
2017-08-15T22:53:35.519Z,84.00
2017-08-15T22:56:01.762Z,83.70
2017-08-15T22:58:28.000Z,83.70
2017-08-15T23:00:54.223Z,83.90
2017-08-15T23:03:20.839Z,84.10
2017-08-15T23:05:47.072Z,84.20
2017-08-15T23:08:13.302Z,83.90
2017-08-15T23:10:40.287Z,83.50
2017-08-15T23:13:06.531Z,82.80
2017-08-15T23:15:32.856Z,83.20
2017-08-15T23:17:59.183Z,83.20
2017-08-15T23:20:26.145Z,83.10
2017-08-15T23:22:52.382Z,83.10
2017-08-15T23:25:19.383Z,83.10
2017-08-15T23:27:45.651Z,83.00
2017-08-15T23:30:11.862Z,82.80
2017-08-15T23:32:38.114Z,82.70
2017-08-15T23:35:05.064Z,83.50
2017-08-15T23:37:32.016Z,83.00
2017-08-15T23:39:59.019Z,83.40
2017-08-15T23:42:25.248Z,83.30
2017-08-15T23:44:51.478Z,83.00
2017-08-15T23:47:19.510Z,82.90
2017-08-15T23:49:45.716Z,83.10
2017-08-15T23:52:11.930Z,83.40
2017-08-15T23:54:38.182Z,83.10
2017-08-15T23:57:04.415Z,83.10
2017-08-15T23:59:30.622Z,82.90
